Time;durP1;ratioP1;P1;durP2;ratioP2;P2;SDS_P1;SDS_P2;PMS_P1;PMS_P2;Temp;Humidity;BMP_temperature;BMP_pressure;BME280_temperature;BME280_humidity;BME280_pressure;Samples;Min_cycle;Max_cycle;Signal;HPM_P1;HPM_P2
2023/09/14 00:01:02;;;;;;;14.00;7.82;;;;;;;;;;5102975;28;20036;-59
2023/09/14 00:03:28;;;;;;;16.27;7.75;;;;;;;;;;5100954;28;20032;-59
2023/09/14 00:05:54;;;;;;;13.90;8.05;;;;;;;;;;5104904;28;20042;-59
2023/09/14 00:08:21;;;;;;;12.38;7.20;;;;;;;;;;5103925;28;20047;-59
2023/09/14 00:10:53;;;;;;;13.70;7.25;;;;;;;;;;5084555;28;20414;-59
2023/09/14 00:13:19;;;;;;;12.55;7.97;;;;;;;;;;5099167;28;20135;-59
2023/09/14 00:15:46;;;;;;;14.02;7.72;;;;;;;;;;5100913;28;20070;-60
2023/09/14 00:18:12;;;;;;;16.08;7.45;;;;;;;;;;5081203;28;20031;-59
2023/09/14 00:20:38;;;;;;;11.95;7.82;;;;;;;;;;5101540;28;20521;-59
2023/09/14 00:23:04;;;;;;;10.90;7.35;;;;;;;;;;5100520;28;20414;-59
2023/09/14 00:25:30;;;;;;;11.85;7.53;;;;;;;;;;5100322;28;20059;-60
2023/09/14 00:27:56;;;;;;;14.55;7.38;;;;;;;;;;5103879;28;20039;-59
2023/09/14 00:30:23;;;;;;;13.70;7.70;;;;;;;;;;5101289;28;20587;-59
2023/09/14 00:32:51;;;;;;;17.15;7.90;;;;;;;;;;5103319;28;20036;-59
2023/09/14 00:35:20;;;;;;;12.65;7.30;;;;;;;;;;5098481;28;20051;-59
2023/09/14 00:37:46;;;;;;;12.15;7.78;;;;;;;;;;5078021;28;20054;-61
2023/09/14 00:40:14;;;;;;;15.38;8.60;;;;;;;;;;5093476;28;20036;-60
2023/09/14 00:42:41;;;;;;;13.88;7.78;;;;;;;;;;5085579;28;20039;-60
2023/09/14 00:45:09;;;;;;;14.57;7.50;;;;;;;;;;5099542;28;20036;-60
2023/09/14 00:47:37;;;;;;;14.48;8.57;;;;;;;;;;5084371;28;20082;-60
2023/09/14 00:50:04;;;;;;;12.20;7.55;;;;;;;;;;5085110;28;20036;-60
2023/09/14 00:52:33;;;;;;;14.32;8.05;;;;;;;;;;5098681;28;20036;-61
2023/09/14 00:55:00;;;;;;;14.80;7.75;;;;;;;;;;5103029;28;20031;-60
2023/09/14 00:57:26;;;;;;;13.63;7.97;;;;;;;;;;5089232;28;20266;-60
2023/09/14 00:59:53;;;;;;;12.73;7.88;;;;;;;;;;5069723;28;20032;-60
2023/09/14 01:02:19;;;;;;;11.85;7.75;;;;;;;;;;5080735;28;20510;-60
2023/09/14 01:04:45;;;;;;;16.65;8.45;;;;;;;;;;5083107;28;20032;-60
2023/09/14 01:07:14;;;;;;;13.93;8.52;;;;;;;;;;5106856;28;20040;-60
2023/09/14 01:09:40;;;;;;;17.58;11.02;;;;;;;;;;5084660;28;20711;-60
2023/09/14 01:12:08;;;;;;;15.70;9.07;;;;;;;;;;5078908;28;20055;-61
2023/09/14 01:14:49;;;;;;;12.35;7.75;;;;;;;;;;5079367;28;20035;-60
2023/09/14 01:17:32;;;;;;;15.32;8.43;;;;;;;;;;5083275;28;20507;-61
2023/09/14 01:20:24;;;;;;;17.15;8.18;;;;;;;;;;5104067;28;20035;-60
2023/09/14 01:23:12;;;;;;;15.93;8.68;;;;;;;;;;5070253;28;20062;-59
2023/09/14 01:25:49;;;;;;;14.48;8.05;;;;;;;;;;5078162;28;20031;-60
2023/09/14 01:28:15;;;;;;;14.57;9.00;;;;;;;;;;5084249;28;20036;-60
2023/09/14 01:30:44;;;;;;;18.35;9.20;;;;;;;;;;5095903;28;20032;-61
2023/09/14 01:33:15;;;;;;;13.57;8.13;;;;;;;;;;5085059;28;20040;-60
2023/09/14 01:35:49;;;;;;;17.25;8.63;;;;;;;;;;5083066;28;20047;-61
2023/09/14 01:38:21;;;;;;;15.88;8.77;;;;;;;;;;5085745;28;20036;-59
2023/09/14 01:40:48;;;;;;;14.65;8.55;;;;;;;;;;5087647;28;20043;-60
2023/09/14 01:43:15;;;;;;;15.68;9.40;;;;;;;;;;5094568;28;20162;-61
2023/09/14 01:45:42;;;;;;;17.20;8.43;;;;;;;;;;5097635;28;20119;-60
2023/09/14 01:48:14;;;;;;;13.77;9.07;;;;;;;;;;5087344;28;20036;-60
2023/09/14 01:50:40;;;;;;;12.43;7.97;;;;;;;;;;5088769;28;20019;-60
2023/09/14 01:53:06;;;;;;;15.10;8.43;;;;;;;;;;5103255;28;20526;-61
2023/09/14 01:55:32;;;;;;;15.50;9.10;;;;;;;;;;5103273;28;20032;-60
2023/09/14 01:57:58;;;;;;;17.58;9.82;;;;;;;;;;5086612;28;20039;-60
2023/09/14 02:00:26;;;;;;;18.65;10.00;;;;;;;;;;5086976;28;20111;-60
2023/09/14 02:02:52;;;;;;;19.60;10.73;;;;;;;;;;5105141;28;20544;-60
2023/09/14 02:05:19;;;;;;;17.98;9.65;;;;;;;;;;5084875;28;20036;-61
2023/09/14 02:07:46;;;;;;;17.38;10.18;;;;;;;;;;5086783;28;20648;-60
2023/09/14 02:10:13;;;;;;;22.58;12.77;;;;;;;;;;5085093;28;20027;-60
2023/09/14 02:12:39;;;;;;;19.58;10.98;;;;;;;;;;5084449;28;20051;-60
2023/09/14 02:15:08;;;;;;;21.00;11.32;;;;;;;;;;5083896;28;20047;-60
2023/09/14 02:17:37;;;;;;;22.15;13.10;;;;;;;;;;5085780;28;20043;-60
2023/09/14 02:20:05;;;;;;;22.88;12.75;;;;;;;;;;5103967;28;20027;-61
2023/09/14 02:22:31;;;;;;;21.42;12.63;;;;;;;;;;5100160;28;20036;-60
2023/09/14 02:24:57;;;;;;;25.88;11.93;;;;;;;;;;5105577;28;20031;-60
2023/09/14 02:27:23;;;;;;;20.88;12.55;;;;;;;;;;5083110;28;20028;-60
2023/09/14 02:29:53;;;;;;;23.23;13.15;;;;;;;;;;5102676;28;20032;-60
2023/09/14 02:32:19;;;;;;;23.40;11.88;;;;;;;;;;5079416;28;20043;-61
2023/09/14 02:34:46;;;;;;;25.55;12.63;;;;;;;;;;5101879;28;20031;-59
2023/09/14 02:37:13;;;;;;;22.13;12.00;;;;;;;;;;5084363;28;20058;-59
2023/09/14 02:39:39;;;;;;;20.52;12.13;;;;;;;;;;5096389;28;20028;-59
2023/09/14 02:42:05;;;;;;;23.10;12.70;;;;;;;;;;5075591;28;20035;-59
2023/09/14 02:44:31;;;;;;;21.70;12.02;;;;;;;;;;5098735;28;20036;-59
2023/09/14 02:46:57;;;;;;;21.95;12.20;;;;;;;;;;5088518;28;20402;-60
2023/09/14 02:49:23;;;;;;;24.27;13.15;;;;;;;;;;5104355;28;20027;-59
2023/09/14 02:51:51;;;;;;;21.75;12.38;;;;;;;;;;5089278;28;20075;-59
2023/09/14 02:54:18;;;;;;;23.25;12.13;;;;;;;;;;5072144;28;20088;-59
2023/09/14 02:56:44;;;;;;;21.92;12.52;;;;;;;;;;5088751;28;20039;-59
2023/09/14 02:59:11;;;;;;;25.63;12.77;;;;;;;;;;5105676;28;20495;-60
2023/09/14 03:01:37;;;;;;;20.50;11.88;;;;;;;;;;5083398;28;20054;-60
2023/09/14 03:04:04;;;;;;;23.13;12.20;;;;;;;;;;5084697;28;20030;-60
2023/09/14 03:06:34;;;;;;;22.88;12.75;;;;;;;;;;5084783;28;20425;-59
2023/09/14 03:09:00;;;;;;;26.02;14.40;;;;;;;;;;5083779;28;20040;-60
2023/09/14 03:11:26;;;;;;;23.02;12.50;;;;;;;;;;5068739;28;20113;-60
2023/09/14 03:13:52;;;;;;;24.30;13.48;;;;;;;;;;5078675;28;20034;-59
2023/09/14 03:16:18;;;;;;;26.17;13.50;;;;;;;;;;5103289;28;20036;-59
2023/09/14 03:18:45;;;;;;;24.10;12.80;;;;;;;;;;5082360;28;20028;-59
2023/09/14 03:21:22;;;;;;;26.65;13.00;;;;;;;;;;5082580;28;20040;-60
2023/09/14 03:23:49;;;;;;;23.77;13.35;;;;;;;;;;5083130;28;20028;-60
2023/09/14 03:26:16;;;;;;;25.33;12.95;;;;;;;;;;5079434;28;20506;-60
2023/09/14 03:28:42;;;;;;;25.20;13.82;;;;;;;;;;5079285;28;20027;-60
2023/09/14 03:31:09;;;;;;;23.60;13.00;;;;;;;;;;5083273;28;20023;-59
2023/09/14 03:33:35;;;;;;;26.85;14.70;;;;;;;;;;5079781;28;20092;-60
2023/09/14 03:36:02;;;;;;;25.33;13.73;;;;;;;;;;5094423;28;20047;-60
2023/09/14 03:38:29;;;;;;;33.95;17.27;;;;;;;;;;5077946;28;20028;-59
2023/09/14 03:40:55;;;;;;;25.88;14.80;;;;;;;;;;5078299;28;20398;-60
2023/09/14 03:43:22;;;;;;;25.45;14.30;;;;;;;;;;5083706;28;20032;-59
2023/09/14 03:45:48;;;;;;;24.15;13.85;;;;;;;;;;5084954;28;20024;-60
2023/09/14 03:48:14;;;;;;;22.90;13.35;;;;;;;;;;5104757;28;20096;-59
2023/09/14 03:50:40;;;;;;;26.02;14.80;;;;;;;;;;5082276;28;20035;-60
2023/09/14 03:53:06;;;;;;;30.30;16.42;;;;;;;;;;5084248;28;20055;-60
2023/09/14 03:55:33;;;;;;;33.15;15.68;;;;;;;;;;5101801;28;20133;-60
2023/09/14 03:58:00;;;;;;;29.02;14.73;;;;;;;;;;5088932;28;20407;-60
2023/09/14 04:00:26;;;;;;;30.75;15.52;;;;;;;;;;5086962;28;20039;-60
2023/09/14 04:02:53;;;;;;;28.33;14.90;;;;;;;;;;5100447;28;20099;-59
2023/09/14 04:05:19;;;;;;;30.23;15.85;;;;;;;;;;5080875;28;20028;-60
2023/09/14 04:07:46;;;;;;;27.33;15.48;;;;;;;;;;5084097;28;20050;-59
2023/09/14 04:10:13;;;;;;;29.08;15.07;;;;;;;;;;5103272;28;20035;-59
2023/09/14 04:12:41;;;;;;;29.77;16.10;;;;;;;;;;5082872;28;20435;-60
2023/09/14 04:15:07;;;;;;;29.23;14.88;;;;;;;;;;5101063;28;20035;-58
2023/09/14 04:17:35;;;;;;;29.65;15.05;;;;;;;;;;5082006;28;20035;-60
2023/09/14 04:20:05;;;;;;;26.90;15.38;;;;;;;;;;5086891;28;20524;-61
2023/09/14 04:22:31;;;;;;;30.00;15.38;;;;;;;;;;5100626;28;20044;-61
2023/09/14 04:24:58;;;;;;;26.67;15.20;;;;;;;;;;5079640;28;20043;-61
2023/09/14 04:27:24;;;;;;;30.02;15.13;;;;;;;;;;5082406;28;20035;-61
2023/09/14 04:29:50;;;;;;;25.27;14.13;;;;;;;;;;5076308;28;20036;-58
2023/09/14 04:32:16;;;;;;;13.35;7.95;;;;;;;;;;5074824;28;20055;-58
2023/09/14 04:34:42;;;;;;;16.50;9.57;;;;;;;;;;5074074;28;20406;-57
2023/09/14 04:37:08;;;;;;;17.05;9.43;;;;;;;;;;5091463;28;20046;-58
2023/09/14 04:39:34;;;;;;;17.75;10.65;;;;;;;;;;5071594;28;20127;-57
2023/09/14 04:42:01;;;;;;;18.05;10.68;;;;;;;;;;5072845;28;20398;-57
2023/09/14 04:44:27;;;;;;;17.08;9.98;;;;;;;;;;5099305;28;20039;-57
2023/09/14 04:46:53;;;;;;;23.17;11.07;;;;;;;;;;5082227;28;20394;-57
2023/09/14 04:49:19;;;;;;;15.85;9.90;;;;;;;;;;5100934;28;20031;-57
2023/09/14 04:51:47;;;;;;;17.17;9.80;;;;;;;;;;5084349;28;20031;-56
2023/09/14 04:54:13;;;;;;;23.25;10.50;;;;;;;;;;5081515;28;20046;-57
2023/09/14 04:56:39;;;;;;;18.92;10.15;;;;;;;;;;5102570;28;20028;-57
2023/09/14 04:59:05;;;;;;;18.80;10.63;;;;;;;;;;5081929;28;20084;-57
2023/09/14 05:01:31;;;;;;;13.45;8.80;;;;;;;;;;5101427;28;20027;-57
2023/09/14 05:03:57;;;;;;;15.63;8.57;;;;;;;;;;5082568;28;20046;-57
2023/09/14 05:06:24;;;;;;;15.32;9.00;;;;;;;;;;5104322;28;20028;-58
2023/09/14 05:08:50;;;;;;;24.25;13.43;;;;;;;;;;5083734;28;20473;-59
2023/09/14 05:11:16;;;;;;;26.50;14.90;;;;;;;;;;5083784;28;20510;-58
2023/09/14 05:13:42;;;;;;;24.77;13.82;;;;;;;;;;5078284;28;20085;-59
2023/09/14 05:16:08;;;;;;;25.08;14.70;;;;;;;;;;5103345;28;20479;-58
2023/09/14 05:18:34;;;;;;;28.42;14.32;;;;;;;;;;5070444;28;20035;-59
2023/09/14 05:21:00;;;;;;;26.25;14.00;;;;;;;;;;5101756;28;20054;-59
2023/09/14 05:23:26;;;;;;;23.77;13.27;;;;;;;;;;5079537;28;20046;-61
2023/09/14 05:25:52;;;;;;;24.38;14.23;;;;;;;;;;5099056;28;20107;-58
2023/09/14 05:28:18;;;;;;;26.77;14.32;;;;;;;;;;5096289;28;20533;-60
2023/09/14 05:30:45;;;;;;;24.08;13.40;;;;;;;;;;5076986;28;20036;-60
2023/09/14 05:33:13;;;;;;;25.80;13.77;;;;;;;;;;5079261;28;20031;-60
2023/09/14 05:35:41;;;;;;;24.38;14.38;;;;;;;;;;5079748;28;20040;-59
2023/09/14 05:38:07;;;;;;;26.08;14.57;;;;;;;;;;5078637;28;20396;-60
2023/09/14 05:40:33;;;;;;;26.77;14.40;;;;;;;;;;5084740;28;20028;-60
2023/09/14 05:43:00;;;;;;;26.98;14.88;;;;;;;;;;5076193;28;20042;-59
2023/09/14 05:45:26;;;;;;;20.50;13.40;;;;;;;;;;5082452;28;20039;-59
2023/09/14 05:47:53;;;;;;;25.85;13.45;;;;;;;;;;5084572;28;20534;-59
2023/09/14 05:50:19;;;;;;;25.98;13.95;;;;;;;;;;5089371;28;20047;-59
2023/09/14 05:52:46;;;;;;;26.73;13.77;;;;;;;;;;5087823;28;20039;-59
2023/09/14 05:55:12;;;;;;;25.88;13.70;;;;;;;;;;5085383;28;20433;-59
2023/09/14 05:57:38;;;;;;;25.55;15.30;;;;;;;;;;5086352;28;20036;-59
2023/09/14 06:00:12;;;;;;;24.85;14.75;;;;;;;;;;5085098;28;20035;-59
2023/09/14 06:02:48;;;;;;;24.75;13.13;;;;;;;;;;5085835;28;20036;-59
2023/09/14 06:05:14;;;;;;;25.13;14.93;;;;;;;;;;5082975;28;20051;-58
2023/09/14 06:07:40;;;;;;;24.88;13.63;;;;;;;;;;5104105;28;20114;-59
2023/09/14 06:10:07;;;;;;;22.75;13.98;;;;;;;;;;5081921;28;20495;-59
2023/09/14 06:12:35;;;;;;;30.83;15.40;;;;;;;;;;5082569;28;20036;-58
2023/09/14 06:15:01;;;;;;;25.90;14.40;;;;;;;;;;5104253;28;20043;-59
2023/09/14 06:17:27;;;;;;;31.02;15.65;;;;;;;;;;5098645;28;20040;-59
2023/09/14 06:19:53;;;;;;;28.85;15.88;;;;;;;;;;5104916;28;20419;-59
2023/09/14 06:22:19;;;;;;;24.55;14.27;;;;;;;;;;5104194;28;20044;-59
2023/09/14 06:24:45;;;;;;;24.50;14.40;;;;;;;;;;5105278;28;20501;-59
2023/09/14 06:27:12;;;;;;;22.50;13.35;;;;;;;;;;5107730;28;20035;-59
2023/09/14 06:29:38;;;;;;;29.85;13.85;;;;;;;;;;5071488;28;20031;-58
2023/09/14 06:32:05;;;;;;;27.55;13.48;;;;;;;;;;5104169;28;20044;-59
2023/09/14 06:34:31;;;;;;;24.30;13.13;;;;;;;;;;5102073;28;20407;-58
2023/09/14 06:36:57;;;;;;;22.52;12.63;;;;;;;;;;5105858;28;20048;-58
2023/09/14 06:39:23;;;;;;;26.48;14.45;;;;;;;;;;5107491;28;20036;-59
2023/09/14 06:41:49;;;;;;;26.20;14.27;;;;;;;;;;5103757;28;20560;-59
2023/09/14 06:44:19;;;;;;;30.42;14.75;;;;;;;;;;5103233;28;20050;-59
2023/09/14 06:46:46;;;;;;;26.33;14.52;;;;;;;;;;5104408;28;20023;-59
2023/09/14 06:49:13;;;;;;;30.48;15.00;;;;;;;;;;5105700;28;20055;-58
2023/09/14 06:51:39;;;;;;;28.02;14.73;;;;;;;;;;5104265;28;20019;-58
2023/09/14 06:54:05;;;;;;;28.35;14.18;;;;;;;;;;5102314;28;20044;-58
2023/09/14 06:56:31;;;;;;;29.98;15.68;;;;;;;;;;5103347;28;20047;-59
2023/09/14 06:58:57;;;;;;;30.40;14.40;;;;;;;;;;5102742;28;20082;-58
2023/09/14 07:01:24;;;;;;;28.45;14.90;;;;;;;;;;5103946;28;20434;-58
2023/09/14 07:03:53;;;;;;;34.38;15.80;;;;;;;;;;5099616;28;20438;-58
2023/09/14 07:06:19;;;;;;;30.60;14.68;;;;;;;;;;5083201;28;20044;-60
2023/09/14 07:08:45;;;;;;;28.05;14.23;;;;;;;;;;5102646;28;20035;-57
2023/09/14 07:11:12;;;;;;;27.67;14.95;;;;;;;;;;5105732;28;20449;-58
2023/09/14 07:13:38;;;;;;;28.95;15.50;;;;;;;;;;5101464;28;20039;-58
2023/09/14 07:16:04;;;;;;;23.75;13.75;;;;;;;;;;5100812;28;20498;-59
2023/09/14 07:18:32;;;;;;;28.08;14.70;;;;;;;;;;5087546;28;20035;-59
2023/09/14 07:21:01;;;;;;;26.83;13.85;;;;;;;;;;5104438;28;20339;-59
2023/09/14 07:23:28;;;;;;;45.70;16.52;;;;;;;;;;5099913;28;20418;-59
2023/09/14 07:25:54;;;;;;;78.90;15.82;;;;;;;;;;5104877;28;20051;-58
2023/09/14 07:28:21;;;;;;;55.92;14.70;;;;;;;;;;5102212;28;20036;-58
2023/09/14 07:30:50;;;;;;;32.95;14.60;;;;;;;;;;5077610;28;20031;-59
2023/09/14 07:33:17;;;;;;;30.00;14.63;;;;;;;;;;5090880;28;20040;-59
2023/09/14 07:35:45;;;;;;;26.52;13.98;;;;;;;;;;5090183;28;20043;-59
2023/09/14 07:38:12;;;;;;;26.95;14.52;;;;;;;;;;5105469;28;20055;-59
2023/09/14 07:40:39;;;;;;;29.63;13.35;;;;;;;;;;5104522;28;20433;-58
2023/09/14 07:43:05;;;;;;;33.80;14.02;;;;;;;;;;5100600;28;20399;-58
2023/09/14 07:45:35;;;;;;;28.30;13.98;;;;;;;;;;5104442;28;20035;-60
2023/09/14 07:48:03;;;;;;;29.20;13.93;;;;;;;;;;5085050;28;20050;-59
2023/09/14 07:50:29;;;;;;;39.38;14.60;;;;;;;;;;5101785;28;20027;-59
2023/09/14 07:52:55;;;;;;;28.27;13.82;;;;;;;;;;5101096;28;20048;-59
2023/09/14 07:55:22;;;;;;;27.98;14.05;;;;;;;;;;5100789;28;20028;-60
2023/09/14 07:57:48;;;;;;;32.33;14.35;;;;;;;;;;5103351;28;20403;-60
2023/09/14 08:00:14;;;;;;;26.10;13.43;;;;;;;;;;5103179;28;20027;-58
2023/09/14 08:02:40;;;;;;;24.35;13.05;;;;;;;;;;5100926;28;20507;-58
2023/09/14 08:05:07;;;;;;;21.75;12.27;;;;;;;;;;5098063;28;20055;-60
2023/09/14 08:07:33;;;;;;;24.42;12.85;;;;;;;;;;5105809;28;20048;-58
2023/09/14 08:09:59;;;;;;;24.80;14.00;;;;;;;;;;5099738;28;20054;-58
2023/09/14 08:12:26;;;;;;;26.20;14.98;;;;;;;;;;5101675;28;20035;-58
2023/09/14 08:14:52;;;;;;;24.02;14.02;;;;;;;;;;5101529;28;20050;-59
2023/09/14 08:17:18;;;;;;;22.30;12.65;;;;;;;;;;5104223;28;20517;-59
2023/09/14 08:19:44;;;;;;;26.35;14.15;;;;;;;;;;5104431;28;20035;-58
2023/09/14 08:22:10;;;;;;;24.50;13.57;;;;;;;;;;5102170;28;20047;-59
2023/09/14 08:24:36;;;;;;;26.52;13.95;;;;;;;;;;5102556;28;20487;-58
2023/09/14 08:27:03;;;;;;;23.15;13.13;;;;;;;;;;5104184;28;20058;-58
2023/09/14 08:29:30;;;;;;;23.00;12.85;;;;;;;;;;5103764;28;20507;-59
2023/09/14 08:31:56;;;;;;;24.15;13.60;;;;;;;;;;5084544;28;20028;-58
2023/09/14 08:34:22;;;;;;;25.83;14.05;;;;;;;;;;5101895;28;20035;-58
2023/09/14 08:36:48;;;;;;;21.88;12.90;;;;;;;;;;5103616;28;20047;-58
2023/09/14 08:39:14;;;;;;;23.38;13.70;;;;;;;;;;5102865;28;20047;-59
2023/09/14 08:41:41;;;;;;;25.67;13.60;;;;;;;;;;5103410;28;20027;-59
2023/09/14 08:44:07;;;;;;;20.58;12.70;;;;;;;;;;5099140;28;20044;-58
2023/09/14 08:46:34;;;;;;;22.60;12.32;;;;;;;;;;5101444;28;20032;-58
2023/09/14 08:49:03;;;;;;;19.95;11.70;;;;;;;;;;5102137;28;20067;-59
2023/09/14 08:51:32;;;;;;;20.97;11.43;;;;;;;;;;5101748;28;20043;-58
2023/09/14 08:53:59;;;;;;;;;;;;;;;;;;5100183;28;20494;-58
2023/09/14 08:56:26;;;;;;;19.45;11.07;;;;;;;;;;5100558;28;19916;-59
2023/09/14 08:58:55;;;;;;;18.80;11.95;;;;;;;;;;5099438;28;20031;-59
2023/09/14 09:01:21;;;;;;;21.40;12.90;;;;;;;;;;5082983;28;20458;-58
2023/09/14 09:03:47;;;;;;;20.13;11.68;;;;;;;;;;5081203;28;20058;-58
2023/09/14 09:06:17;;;;;;;18.02;10.50;;;;;;;;;;5104710;28;20038;-59
2023/09/14 09:08:43;;;;;;;17.30;10.93;;;;;;;;;;5102692;28;20558;-59
2023/09/14 09:11:09;;;;;;;18.17;10.85;;;;;;;;;;5104188;28;20023;-58
2023/09/14 09:13:41;;;;;;;19.30;12.63;;;;;;;;;;5099632;28;20028;-58
2023/09/14 09:16:07;;;;;;;22.15;11.93;;;;;;;;;;5098450;28;20050;-58
2023/09/14 09:18:35;;;;;;;18.80;11.27;;;;;;;;;;5103201;28;20036;-60
2023/09/14 09:21:05;;;;;;;18.88;11.30;;;;;;;;;;5102162;28;20047;-58
2023/09/14 09:23:33;;;;;;;21.95;12.25;;;;;;;;;;5103365;28;20034;-58
2023/09/14 09:26:01;;;;;;;17.25;10.63;;;;;;;;;;5100210;28;20058;-58
2023/09/14 09:28:30;;;;;;;16.58;10.20;;;;;;;;;;5104206;28;20023;-58
2023/09/14 09:30:56;;;;;;;16.58;10.60;;;;;;;;;;5081139;28;20032;-59
2023/09/14 09:33:36;;;;;;;16.65;9.93;;;;;;;;;;5100328;28;20503;-58
2023/09/14 09:36:18;;;;;;;15.57;9.00;;;;;;;;;;5083801;28;23984;-58
2023/09/14 09:38:47;;;;;;;13.07;8.82;;;;;;;;;;5099732;28;20042;-59
2023/09/14 09:41:15;;;;;;;15.15;8.98;;;;;;;;;;5101993;28;20039;-59
2023/09/14 09:43:41;;;;;;;12.98;8.63;;;;;;;;;;5100359;28;20044;-58
2023/09/14 09:46:15;;;;;;;15.52;9.95;;;;;;;;;;5103517;28;20038;-59
2023/09/14 09:48:41;;;;;;;16.77;9.90;;;;;;;;;;5102284;28;20035;-59
2023/09/14 09:51:08;;;;;;;28.77;10.32;;;;;;;;;;5099870;28;20040;-59
2023/09/14 09:53:35;;;;;;;16.17;9.40;;;;;;;;;;5085423;28;20047;-59
2023/09/14 09:56:03;;;;;;;17.17;8.63;;;;;;;;;;5105268;28;20032;-58
2023/09/14 09:58:36;;;;;;;18.35;8.40;;;;;;;;;;5078207;28;20028;-59
2023/09/14 10:01:02;;;;;;;12.60;9.35;;;;;;;;;;5101192;28;20032;-59
2023/09/14 10:03:32;;;;;;;15.23;9.27;;;;;;;;;;5106537;28;20054;-59
2023/09/14 10:05:59;;;;;;;14.63;8.50;;;;;;;;;;5106526;28;20499;-58
2023/09/14 10:08:25;;;;;;;13.07;9.05;;;;;;;;;;5105356;28;20058;-59
2023/09/14 10:10:51;;;;;;;14.70;8.75;;;;;;;;;;5086304;28;20537;-59
2023/09/14 10:13:20;;;;;;;12.52;8.63;;;;;;;;;;5107018;28;20403;-59
2023/09/14 10:15:46;;;;;;;11.23;7.22;;;;;;;;;;5106190;28;20414;-59
2023/09/14 10:18:14;;;;;;;10.90;6.85;;;;;;;;;;5106860;28;20023;-59
2023/09/14 10:20:41;;;;;;;12.10;6.80;;;;;;;;;;5100751;28;20024;-59
2023/09/14 10:23:08;;;;;;;9.85;6.90;;;;;;;;;;5106524;28;20027;-59
2023/09/14 10:25:35;;;;;;;12.02;8.25;;;;;;;;;;5107279;28;20043;-59
2023/09/14 10:28:03;;;;;;;13.77;8.88;;;;;;;;;;5103725;28;20513;-59
2023/09/14 10:30:30;;;;;;;12.88;7.93;;;;;;;;;;5101650;28;20231;-59
2023/09/14 10:32:58;;;;;;;9.80;7.13;;;;;;;;;;5100286;28;20411;-59
2023/09/14 10:35:26;;;;;;;10.68;7.35;;;;;;;;;;5103285;28;20044;-59
2023/09/14 10:37:53;;;;;;;16.30;7.38;;;;;;;;;;5105779;28;20032;-59
2023/09/14 10:40:20;;;;;;;12.25;6.45;;;;;;;;;;5107384;28;20038;-59
2023/09/14 10:42:46;;;;;;;11.15;7.13;;;;;;;;;;5104155;28;20043;-59
2023/09/14 10:45:13;;;;;;;11.10;7.43;;;;;;;;;;5106246;28;20027;-59
2023/09/14 10:47:46;;;;;;;9.25;6.50;;;;;;;;;;5105218;28;20030;-58
2023/09/14 10:50:15;;;;;;;10.55;5.50;;;;;;;;;;5102779;28;20043;-59
2023/09/14 10:52:42;;;;;;;9.25;5.55;;;;;;;;;;5102839;27;20053;-59
2023/09/14 10:55:09;;;;;;;8.55;5.35;;;;;;;;;;5096950;28;20054;-58
2023/09/14 10:57:39;;;;;;;8.48;5.43;;;;;;;;;;5100786;28;20050;-58
2023/09/14 11:00:06;;;;;;;8.05;5.88;;;;;;;;;;5102442;28;20680;-59
2023/09/14 11:02:45;;;;;;;7.00;5.68;;;;;;;;;;5104835;28;20051;-58
2023/09/14 11:05:18;;;;;;;7.80;5.78;;;;;;;;;;5101731;28;20036;-60
2023/09/14 11:07:47;;;;;;;8.27;5.88;;;;;;;;;;5104214;28;20032;-60
2023/09/14 11:10:18;;;;;;;7.38;5.88;;;;;;;;;;5087548;28;20669;-60
2023/09/14 11:12:44;;;;;;;8.55;5.57;;;;;;;;;;5102812;28;20050;-60
2023/09/14 11:15:14;;;;;;;7.30;5.47;;;;;;;;;;5103679;28;20051;-60
2023/09/14 11:17:44;;;;;;;8.07;5.75;;;;;;;;;;5104876;28;20035;-60
2023/09/14 11:20:20;;;;;;;6.93;5.07;;;;;;;;;;5105844;28;20032;-59
2023/09/14 11:22:50;;;;;;;19.73;5.93;;;;;;;;;;5104482;28;20048;-59
2023/09/14 11:25:26;;;;;;;13.15;5.57;;;;;;;;;;5102233;28;20036;-59
2023/09/14 11:27:53;;;;;;;9.88;5.75;;;;;;;;;;5103256;28;20035;-59
2023/09/14 11:30:20;;;;;;;10.30;5.90;;;;;;;;;;5087641;28;20514;-59
2023/09/14 11:32:47;;;;;;;9.25;5.40;;;;;;;;;;5104232;28;20031;-59
2023/09/14 11:35:13;;;;;;;6.97;4.50;;;;;;;;;;5084782;28;20031;-59
2023/09/14 11:37:40;;;;;;;5.72;4.15;;;;;;;;;;5100898;28;20499;-59
2023/09/14 11:40:15;;;;;;;8.23;4.95;;;;;;;;;;5104104;28;20046;-59
2023/09/14 11:43:21;;;;;;;6.45;5.00;;;;;;;;;;5103525;28;20793;-59
2023/09/14 11:45:49;;;;;;;8.85;5.35;;;;;;;;;;5103569;28;20047;-59
2023/09/14 11:48:17;;;;;;;6.75;5.47;;;;;;;;;;5104690;28;20031;-59
2023/09/14 11:50:46;;;;;;;8.98;4.95;;;;;;;;;;5102075;28;20100;-59
2023/09/14 11:53:17;;;;;;;;;;;;;;;;;;5081768;28;20404;-59
2023/09/14 11:55:48;;;;;;;8.95;4.75;;;;;;;;;;5094664;28;20508;-59
2023/09/14 11:58:15;;;;;;;9.40;5.30;;;;;;;;;;5108459;28;20136;-59
2023/09/14 12:00:46;;;;;;;7.15;4.93;;;;;;;;;;5084025;28;20044;-59
2023/09/14 12:03:13;;;;;;;8.30;5.88;;;;;;;;;;5100170;28;20032;-59
2023/09/14 12:05:39;;;;;;;8.00;5.93;;;;;;;;;;5104220;28;20094;-59
2023/09/14 12:08:13;;;;;;;9.15;5.10;;;;;;;;;;5086478;28;20039;-59
2023/09/14 12:10:40;;;;;;;6.80;5.22;;;;;;;;;;5099404;28;20522;-58
2023/09/14 12:13:16;;;;;;;9.85;4.25;;;;;;;;;;5096847;28;20046;-59
2023/09/14 12:15:44;;;;;;;6.60;4.22;;;;;;;;;;5104119;28;20427;-58
2023/09/14 12:18:12;;;;;;;6.32;5.28;;;;;;;;;;5103056;28;20032;-59
2023/09/14 12:20:40;;;;;;;7.35;5.15;;;;;;;;;;5101869;28;20491;-58
2023/09/14 12:23:07;;;;;;;4.70;4.13;;;;;;;;;;5102661;28;20027;-59
2023/09/14 12:25:35;;;;;;;5.38;4.00;;;;;;;;;;5104640;28;20031;-59
2023/09/14 12:28:04;;;;;;;6.63;3.93;;;;;;;;;;5096237;28;20031;-59
2023/09/14 12:30:31;;;;;;;7.57;4.03;;;;;;;;;;5098760;28;20047;-59
2023/09/14 12:32:58;;;;;;;6.75;4.65;;;;;;;;;;5101962;28;20525;-60
2023/09/14 12:35:24;;;;;;;5.90;3.97;;;;;;;;;;5103662;28;20023;-59
2023/09/14 12:37:52;;;;;;;10.00;4.72;;;;;;;;;;5101332;28;20042;-59
2023/09/14 12:40:19;;;;;;;4.90;4.25;;;;;;;;;;5101726;28;20034;-60
2023/09/14 12:42:46;;;;;;;7.55;4.32;;;;;;;;;;5083441;28;20032;-60
2023/09/14 12:45:16;;;;;;;5.72;4.25;;;;;;;;;;5096595;28;20402;-60
2023/09/14 12:47:47;;;;;;;7.57;3.97;;;;;;;;;;5101621;28;20032;-60
2023/09/14 12:50:17;;;;;;;5.30;4.00;;;;;;;;;;5098550;28;20027;-60
2023/09/14 12:52:47;;;;;;;5.25;3.83;;;;;;;;;;5101244;28;20148;-61
2023/09/14 12:55:16;;;;;;;3.70;3.40;;;;;;;;;;5086364;28;20036;-60
2023/09/14 12:57:49;;;;;;;;;;;;;;;;;;5083311;28;20525;-60
2023/09/14 13:00:16;;;;;;;15.52;5.50;;;;;;;;;;5099921;28;19912;-61
2023/09/14 13:02:44;;;;;;;4.40;3.92;;;;;;;;;;5084595;28;20047;-60
2023/09/14 13:05:14;;;;;;;5.07;3.53;;;;;;;;;;5102464;28;20517;-59
2023/09/14 13:07:48;;;;;;;22.58;4.60;;;;;;;;;;5095320;28;20407;-58
2023/09/14 13:10:23;;;;;;;6.45;3.58;;;;;;;;;;5102888;28;20036;-60
2023/09/14 13:12:58;;;;;;;7.32;3.58;;;;;;;;;;5103277;28;20028;-59
2023/09/14 13:15:26;;;;;;;3.72;3.05;;;;;;;;;;5100578;28;20039;-59
2023/09/14 13:17:54;;;;;;;4.75;3.13;;;;;;;;;;5083162;28;20055;-59
2023/09/14 13:20:22;;;;;;;4.45;3.30;;;;;;;;;;5082657;28;20059;-59
2023/09/14 13:22:48;;;;;;;5.07;3.05;;;;;;;;;;5102564;28;20050;-60
2023/09/14 13:25:14;;;;;;;3.75;3.17;;;;;;;;;;5099392;28;20422;-60
2023/09/14 13:27:41;;;;;;;3.65;3.08;;;;;;;;;;5103058;28;20054;-60
2023/09/14 13:30:11;;;;;;;5.97;2.90;;;;;;;;;;5105247;28;20039;-60
2023/09/14 13:32:39;;;;;;;3.25;2.90;;;;;;;;;;5107183;28;20036;-59
2023/09/14 13:35:07;;;;;;;4.57;3.13;;;;;;;;;;5089007;28;20443;-59
2023/09/14 13:37:34;;;;;;;4.50;3.00;;;;;;;;;;5102838;28;20467;-60
2023/09/14 13:40:14;;;;;;;5.03;2.70;;;;;;;;;;5105433;28;20048;-60
2023/09/14 13:42:41;;;;;;;6.43;2.95;;;;;;;;;;5100869;28;20036;-59
2023/09/14 13:45:09;;;;;;;3.80;2.67;;;;;;;;;;5104104;28;20040;-59
2023/09/14 13:47:35;;;;;;;4.15;2.97;;;;;;;;;;5106402;28;20031;-59
2023/09/14 13:50:04;;;;;;;6.72;2.63;;;;;;;;;;5106134;28;20058;-59
2023/09/14 13:52:33;;;;;;;4.38;2.78;;;;;;;;;;5108709;28;20024;-59
2023/09/14 13:54:59;;;;;;;3.38;2.20;;;;;;;;;;5104042;28;20059;-60
2023/09/14 13:57:25;;;;;;;3.72;2.50;;;;;;;;;;5109781;28;20410;-60
2023/09/14 13:59:51;;;;;;;2.88;2.13;;;;;;;;;;5100264;28;20416;-60
2023/09/14 14:02:18;;;;;;;3.17;2.33;;;;;;;;;;5105319;28;20039;-59
2023/09/14 14:04:45;;;;;;;3.08;2.30;;;;;;;;;;5103946;28;20039;-59
2023/09/14 14:07:12;;;;;;;4.13;2.17;;;;;;;;;;5106769;28;20034;-59
2023/09/14 14:09:42;;;;;;;5.15;2.10;;;;;;;;;;5107013;28;20051;-59
2023/09/14 14:12:09;;;;;;;3.40;2.10;;;;;;;;;;5086059;28;20035;-59
2023/09/14 14:14:35;;;;;;;4.35;2.30;;;;;;;;;;5103268;28;20044;-60
2023/09/14 14:17:02;;;;;;;2.80;2.00;;;;;;;;;;5106246;28;20031;-58
2023/09/14 14:19:28;;;;;;;2.92;2.08;;;;;;;;;;5102752;28;20032;-59
2023/09/14 14:21:54;;;;;;;3.20;2.35;;;;;;;;;;5097185;28;20042;-59
2023/09/14 14:24:20;;;;;;;3.40;2.20;;;;;;;;;;5095728;28;20047;-58
2023/09/14 14:26:50;;;;;;;2.60;2.13;;;;;;;;;;5099874;28;20032;-59
2023/09/14 14:29:20;;;;;;;2.85;2.35;;;;;;;;;;5102745;28;20623;-58
2023/09/14 14:31:46;;;;;;;4.22;2.08;;;;;;;;;;5097760;28;20047;-59